sensor_id;sensor_type;location;lat;lon;timestamp;temperature;humidity
47757;SHT35;22147;52.388;13.390;2023-07-24T00:01:12;18.82;70.34
47757;SHT35;22147;52.388;13.390;2023-07-24T00:03:42;18.87;70.44
47757;SHT35;22147;52.388;13.390;2023-07-24T00:06:12;18.89;71.25
47757;SHT35;22147;52.388;13.390;2023-07-24T00:08:42;18.92;70.66
47757;SHT35;22147;52.388;13.390;2023-07-24T00:11:12;18.90;71.21
47757;SHT35;22147;52.388;13.390;2023-07-24T00:13:43;18.92;71.59
47757;SHT35;22147;52.388;13.390;2023-07-24T00:16:14;18.90;72.87
47757;SHT35;22147;52.388;13.390;2023-07-24T00:18:44;18.84;73.62
47757;SHT35;22147;52.388;13.390;2023-07-24T00:21:14;18.80;74.31
47757;SHT35;22147;52.388;13.390;2023-07-24T00:23:44;18.69;74.24
47757;SHT35;22147;52.388;13.390;2023-07-24T00:26:14;18.61;74.61
47757;SHT35;22147;52.388;13.390;2023-07-24T00:28:45;18.56;74.16
47757;SHT35;22147;52.388;13.390;2023-07-24T00:31:15;18.49;74.29
47757;SHT35;22147;52.388;13.390;2023-07-24T00:33:45;18.46;74.55
47757;SHT35;22147;52.388;13.390;2023-07-24T00:36:15;18.44;74.34
47757;SHT35;22147;52.388;13.390;2023-07-24T00:38:45;18.39;74.28
47757;SHT35;22147;52.388;13.390;2023-07-24T00:41:16;18.32;74.40
47757;SHT35;22147;52.388;13.390;2023-07-24T00:43:46;18.29;74.43
47757;SHT35;22147;52.388;13.390;2023-07-24T00:46:16;18.28;74.34
47757;SHT35;22147;52.388;13.390;2023-07-24T00:48:47;18.27;74.00
47757;SHT35;22147;52.388;13.390;2023-07-24T00:51:18;18.27;73.77
47757;SHT35;22147;52.388;13.390;2023-07-24T00:53:46;18.27;73.36
47757;SHT35;22147;52.388;13.390;2023-07-24T00:56:15;18.28;73.26
47757;SHT35;22147;52.388;13.390;2023-07-24T00:58:43;18.28;73.07
47757;SHT35;22147;52.388;13.390;2023-07-24T01:01:12;18.28;73.30
47757;SHT35;22147;52.388;13.390;2023-07-24T01:03:40;18.24;72.82
47757;SHT35;22147;52.388;13.390;2023-07-24T01:06:09;18.24;72.87
47757;SHT35;22147;52.388;13.390;2023-07-24T01:08:37;18.21;73.13
47757;SHT35;22147;52.388;13.390;2023-07-24T01:11:20;18.14;73.11
47757;SHT35;22147;52.388;13.390;2023-07-24T01:14:11;18.10;73.33
47757;SHT35;22147;52.388;13.390;2023-07-24T01:16:46;18.03;73.21
47757;SHT35;22147;52.388;13.390;2023-07-24T01:19:55;17.93;73.35
47757;SHT35;22147;52.388;13.390;2023-07-24T01:27:46;17.87;73.35
47757;SHT35;22147;52.388;13.390;2023-07-24T01:30:20;17.81;73.30
47757;SHT35;22147;52.388;13.390;2023-07-24T01:32:51;17.84;73.29
47757;SHT35;22147;52.388;13.390;2023-07-24T01:35:22;17.86;72.80
47757;SHT35;22147;52.388;13.390;2023-07-24T01:37:56;17.90;73.02
47757;SHT35;22147;52.388;13.390;2023-07-24T01:40:27;17.94;73.05
47757;SHT35;22147;52.388;13.390;2023-07-24T01:42:57;17.93;73.41
47757;SHT35;22147;52.388;13.390;2023-07-24T01:45:29;17.93;73.33
47757;SHT35;22147;52.388;13.390;2023-07-24T01:48:00;17.96;73.19
47757;SHT35;22147;52.388;13.390;2023-07-24T01:50:31;18.00;72.79
47757;SHT35;22147;52.388;13.390;2023-07-24T01:53:02;18.06;72.81
47757;SHT35;22147;52.388;13.390;2023-07-24T01:55:32;18.08;72.68
47757;SHT35;22147;52.388;13.390;2023-07-24T01:58:02;18.08;72.79
47757;SHT35;22147;52.388;13.390;2023-07-24T02:00:32;18.08;73.03
47757;SHT35;22147;52.388;13.390;2023-07-24T02:03:01;18.08;73.07
47757;SHT35;22147;52.388;13.390;2023-07-24T02:05:29;18.15;72.61
47757;SHT35;22147;52.388;13.390;2023-07-24T02:07:58;18.21;72.90
47757;SHT35;22147;52.388;13.390;2023-07-24T02:10:26;18.21;72.94
47757;SHT35;22147;52.388;13.390;2023-07-24T02:12:55;18.27;72.81
47757;SHT35;22147;52.388;13.390;2023-07-24T02:15:23;18.31;73.34
47757;SHT35;22147;52.388;13.390;2023-07-24T02:17:52;18.34;73.47
47757;SHT35;22147;52.388;13.390;2023-07-24T02:20:21;18.34;73.56
47757;SHT35;22147;52.388;13.390;2023-07-24T02:22:49;18.32;73.81
47757;SHT35;22147;52.388;13.390;2023-07-24T02:25:18;18.32;73.69
47757;SHT35;22147;52.388;13.390;2023-07-24T02:27:46;18.36;73.67
47757;SHT35;22147;52.388;13.390;2023-07-24T02:30:15;18.38;73.13
47757;SHT35;22147;52.388;13.390;2023-07-24T02:32:43;18.41;73.25
47757;SHT35;22147;52.388;13.390;2023-07-24T02:35:11;18.42;73.36
47757;SHT35;22147;52.388;13.390;2023-07-24T02:37:40;18.45;73.06
47757;SHT35;22147;52.388;13.390;2023-07-24T02:40:09;18.45;73.24
47757;SHT35;22147;52.388;13.390;2023-07-24T02:42:37;18.46;73.43
47757;SHT35;22147;52.388;13.390;2023-07-24T02:45:08;18.44;73.44
47757;SHT35;22147;52.388;13.390;2023-07-24T02:47:41;18.48;73.15
47757;SHT35;22147;52.388;13.390;2023-07-24T02:50:12;18.49;73.43
47757;SHT35;22147;52.388;13.390;2023-07-24T02:52:42;18.52;73.29
47757;SHT35;22147;52.388;13.390;2023-07-24T02:55:13;18.52;73.72
47757;SHT35;22147;52.388;13.390;2023-07-24T02:57:43;18.52;73.74
47757;SHT35;22147;52.388;13.390;2023-07-24T03:00:15;18.57;73.79
47757;SHT35;22147;52.388;13.390;2023-07-24T03:02:46;18.62;73.92
47757;SHT35;22147;52.388;13.390;2023-07-24T03:05:16;18.68;74.09
47757;SHT35;22147;52.388;13.390;2023-07-24T03:07:47;18.68;74.17
47757;SHT35;22147;52.388;13.390;2023-07-24T03:10:17;18.71;74.25
47757;SHT35;22147;52.388;13.390;2023-07-24T03:12:47;18.76;74.45
47757;SHT35;22147;52.388;13.390;2023-07-24T03:15:18;18.71;74.58
47757;SHT35;22147;52.388;13.390;2023-07-24T03:17:48;18.68;74.79
47757;SHT35;22147;52.388;13.390;2023-07-24T03:20:20;18.69;75.00
47757;SHT35;22147;52.388;13.390;2023-07-24T03:22:50;18.71;75.05
47757;SHT35;22147;52.388;13.390;2023-07-24T03:25:21;18.69;75.20
47757;SHT35;22147;52.388;13.390;2023-07-24T03:27:51;18.71;75.36
47757;SHT35;22147;52.388;13.390;2023-07-24T03:30:21;18.69;75.48
47757;SHT35;22147;52.388;13.390;2023-07-24T03:32:51;18.72;75.70
47757;SHT35;22147;52.388;13.390;2023-07-24T03:35:21;18.69;75.88
47757;SHT35;22147;52.388;13.390;2023-07-24T03:37:52;18.73;75.89
47757;SHT35;22147;52.388;13.390;2023-07-24T03:40:22;18.76;76.23
47757;SHT35;22147;52.388;13.390;2023-07-24T03:42:52;18.79;76.27
47757;SHT35;22147;52.388;13.390;2023-07-24T03:45:23;18.80;76.50
47757;SHT35;22147;52.388;13.390;2023-07-24T03:47:53;18.84;76.50
47757;SHT35;22147;52.388;13.390;2023-07-24T03:50:23;18.87;76.56
47757;SHT35;22147;52.388;13.390;2023-07-24T03:52:53;18.89;76.58
47757;SHT35;22147;52.388;13.390;2023-07-24T03:55:23;18.92;76.55
47757;SHT35;22147;52.388;13.390;2023-07-24T03:57:54;18.94;76.77
47757;SHT35;22147;52.388;13.390;2023-07-24T04:00:24;18.94;76.92
47757;SHT35;22147;52.388;13.390;2023-07-24T04:02:55;19.02;76.90
47757;SHT35;22147;52.388;13.390;2023-07-24T04:05:25;19.04;76.87
47757;SHT35;22147;52.388;13.390;2023-07-24T04:07:57;19.10;76.97
47757;SHT35;22147;52.388;13.390;2023-07-24T04:10:27;19.14;76.80
47757;SHT35;22147;52.388;13.390;2023-07-24T04:12:57;19.20;76.94
47757;SHT35;22147;52.388;13.390;2023-07-24T04:15:27;19.21;76.92
47757;SHT35;22147;52.388;13.390;2023-07-24T04:17:58;19.27;76.88
47757;SHT35;22147;52.388;13.390;2023-07-24T04:20:28;19.27;76.91
47757;SHT35;22147;52.388;13.390;2023-07-24T04:22:58;19.34;76.65
47757;SHT35;22147;52.388;13.390;2023-07-24T04:25:28;19.38;76.87
47757;SHT35;22147;52.388;13.390;2023-07-24T04:27:58;19.47;76.97
47757;SHT35;22147;52.388;13.390;2023-07-24T04:30:27;19.58;76.57
47757;SHT35;22147;52.388;13.390;2023-07-24T04:32:55;19.66;76.01
47757;SHT35;22147;52.388;13.390;2023-07-24T04:35:24;19.76;76.05
47757;SHT35;22147;52.388;13.390;2023-07-24T04:37:55;19.83;76.11
47757;SHT35;22147;52.388;13.390;2023-07-24T04:40:27;19.89;75.95
47757;SHT35;22147;52.388;13.390;2023-07-24T04:42:57;20.00;75.73
47757;SHT35;22147;52.388;13.390;2023-07-24T04:45:28;20.21;75.03
47757;SHT35;22147;52.388;13.390;2023-07-24T04:47:58;20.26;74.72
47757;SHT35;22147;52.388;13.390;2023-07-24T04:50:28;20.36;74.10
47757;SHT35;22147;52.388;13.390;2023-07-24T04:52:59;20.43;74.26
47757;SHT35;22147;52.388;13.390;2023-07-24T04:55:29;20.44;74.37
47757;SHT35;22147;52.388;13.390;2023-07-24T04:57:59;20.54;74.49
47757;SHT35;22147;52.388;13.390;2023-07-24T05:00:29;20.65;74.22
47757;SHT35;22147;52.388;13.390;2023-07-24T05:03:00;20.75;74.14
47757;SHT35;22147;52.388;13.390;2023-07-24T05:05:30;20.91;73.21
47757;SHT35;22147;52.388;13.390;2023-07-24T05:08:01;21.05;73.11
47757;SHT35;22147;52.388;13.390;2023-07-24T05:10:37;21.25;72.29
47757;SHT35;22147;52.388;13.390;2023-07-24T05:13:07;21.30;72.28
47757;SHT35;22147;52.388;13.390;2023-07-24T05:15:42;21.36;71.25
47757;SHT35;22147;52.388;13.390;2023-07-24T05:18:12;21.33;71.55
47757;SHT35;22147;52.388;13.390;2023-07-24T05:20:47;21.33;72.27
47757;SHT35;22147;52.388;13.390;2023-07-24T05:23:19;21.32;72.23
47757;SHT35;22147;52.388;13.390;2023-07-24T05:26:01;21.36;72.23
47757;SHT35;22147;52.388;13.390;2023-07-24T05:28:32;21.29;71.98
47757;SHT35;22147;52.388;13.390;2023-07-24T05:31:05;21.20;72.00
47757;SHT35;22147;52.388;13.390;2023-07-24T05:33:34;21.37;71.49
47757;SHT35;22147;52.388;13.390;2023-07-24T05:36:04;21.46;71.08
47757;SHT35;22147;52.388;13.390;2023-07-24T05:38:34;21.64;70.30
47757;SHT35;22147;52.388;13.390;2023-07-24T05:41:04;21.87;69.95
47757;SHT35;22147;52.388;13.390;2023-07-24T05:43:32;22.02;69.38
47757;SHT35;22147;52.388;13.390;2023-07-24T05:46:02;22.21;68.77
47757;SHT35;22147;52.388;13.390;2023-07-24T05:48:32;22.29;68.06
47757;SHT35;22147;52.388;13.390;2023-07-24T05:51:02;22.36;68.13
47757;SHT35;22147;52.388;13.390;2023-07-24T05:53:32;22.38;67.71
47757;SHT35;22147;52.388;13.390;2023-07-24T05:56:03;22.52;68.05
47757;SHT35;22147;52.388;13.390;2023-07-24T05:58:32;22.66;66.63
47757;SHT35;22147;52.388;13.390;2023-07-24T06:01:02;22.96;65.22
47757;SHT35;22147;52.388;13.390;2023-07-24T06:03:32;23.07;64.88
47757;SHT35;22147;52.388;13.390;2023-07-24T06:06:02;23.27;63.44
47757;SHT35;22147;52.388;13.390;2023-07-24T06:08:32;23.37;62.33
47757;SHT35;22147;52.388;13.390;2023-07-24T06:11:02;23.49;62.31
47757;SHT35;22147;52.388;13.390;2023-07-24T06:13:32;23.65;61.15
47757;SHT35;22147;52.388;13.390;2023-07-24T06:16:02;23.74;61.41
47757;SHT35;22147;52.388;13.390;2023-07-24T06:18:32;24.10;62.22
47757;SHT35;22147;52.388;13.390;2023-07-24T06:21:02;24.40;60.13
47757;SHT35;22147;52.388;13.390;2023-07-24T06:23:32;24.47;60.47
47757;SHT35;22147;52.388;13.390;2023-07-24T06:26:00;24.68;57.51
47757;SHT35;22147;52.388;13.390;2023-07-24T06:28:29;24.61;58.23
47757;SHT35;22147;52.388;13.390;2023-07-24T06:30:57;24.77;59.01
47757;SHT35;22147;52.388;13.390;2023-07-24T06:33:26;24.98;56.21
47757;SHT35;22147;52.388;13.390;2023-07-24T06:35:56;24.82;56.24
47757;SHT35;22147;52.388;13.390;2023-07-24T06:38:26;24.70;57.45
47757;SHT35;22147;52.388;13.390;2023-07-24T06:40:55;24.67;56.84
47757;SHT35;22147;52.388;13.390;2023-07-24T06:43:25;24.75;58.33
47757;SHT35;22147;52.388;13.390;2023-07-24T06:45:55;25.11;55.37
47757;SHT35;22147;52.388;13.390;2023-07-24T06:48:25;25.23;55.17
47757;SHT35;22147;52.388;13.390;2023-07-24T06:50:55;25.32;55.56
47757;SHT35;22147;52.388;13.390;2023-07-24T06:53:25;25.43;55.06
47757;SHT35;22147;52.388;13.390;2023-07-24T06:55:55;25.57;54.59
47757;SHT35;22147;52.388;13.390;2023-07-24T06:58:25;25.56;54.28
47757;SHT35;22147;52.388;13.390;2023-07-24T07:00:55;25.25;54.21
47757;SHT35;22147;52.388;13.390;2023-07-24T07:03:24;25.23;54.73
47757;SHT35;22147;52.388;13.390;2023-07-24T07:05:59;25.49;53.87
47757;SHT35;22147;52.388;13.390;2023-07-24T07:08:30;25.65;54.11
47757;SHT35;22147;52.388;13.390;2023-07-24T07:11:01;25.83;54.11
47757;SHT35;22147;52.388;13.390;2023-07-24T07:13:30;26.08;53.88
47757;SHT35;22147;52.388;13.390;2023-07-24T07:16:01;26.39;53.13
47757;SHT35;22147;52.388;13.390;2023-07-24T07:18:30;26.51;52.71
47757;SHT35;22147;52.388;13.390;2023-07-24T07:21:00;26.59;53.94
47757;SHT35;22147;52.388;13.390;2023-07-24T07:23:30;26.75;51.89
47757;SHT35;22147;52.388;13.390;2023-07-24T07:26:00;26.65;51.86
47757;SHT35;22147;52.388;13.390;2023-07-24T07:28:30;26.43;52.43
47757;SHT35;22147;52.388;13.390;2023-07-24T07:30:58;26.43;52.79
47757;SHT35;22147;52.388;13.390;2023-07-24T07:33:26;26.46;52.49
47757;SHT35;22147;52.388;13.390;2023-07-24T07:35:55;26.48;52.36
47757;SHT35;22147;52.388;13.390;2023-07-24T07:38:26;26.58;51.92
47757;SHT35;22147;52.388;13.390;2023-07-24T07:40:55;26.80;52.81
47757;SHT35;22147;52.388;13.390;2023-07-24T07:43:23;26.93;52.64
47757;SHT35;22147;52.388;13.390;2023-07-24T07:45:51;27.11;51.18
47757;SHT35;22147;52.388;13.390;2023-07-24T07:48:20;27.19;51.66
47757;SHT35;22147;52.388;13.390;2023-07-24T07:50:52;27.10;50.47
47757;SHT35;22147;52.388;13.390;2023-07-24T07:53:23;27.11;51.73
47757;SHT35;22147;52.388;13.390;2023-07-24T07:55:57;27.21;50.03
47757;SHT35;22147;52.388;13.390;2023-07-24T07:58:30;27.07;51.48
47757;SHT35;22147;52.388;13.390;2023-07-24T08:01:07;26.96;51.35
47757;SHT35;22147;52.388;13.390;2023-07-24T08:03:35;26.82;51.95
47757;SHT35;22147;52.388;13.390;2023-07-24T08:06:05;26.73;50.60
47757;SHT35;22147;52.388;13.390;2023-07-24T08:08:36;26.79;51.76
47757;SHT35;22147;52.388;13.390;2023-07-24T08:11:06;26.84;51.86
47757;SHT35;22147;52.388;13.390;2023-07-24T08:13:36;27.09;50.90
47757;SHT35;22147;52.388;13.390;2023-07-24T08:16:16;27.23;51.43
47757;SHT35;22147;52.388;13.390;2023-07-24T08:18:49;27.49;50.95
47757;SHT35;22147;52.388;13.390;2023-07-24T08:21:18;27.52;50.22
47757;SHT35;22147;52.388;13.390;2023-07-24T08:23:48;27.84;51.74
47757;SHT35;22147;52.388;13.390;2023-07-24T08:26:18;27.76;50.40
47757;SHT35;22147;52.388;13.390;2023-07-24T08:28:48;27.19;51.99
47757;SHT35;22147;52.388;13.390;2023-07-24T08:31:18;26.52;52.48
47757;SHT35;22147;52.388;13.390;2023-07-24T08:33:48;26.36;54.18
47757;SHT35;22147;52.388;13.390;2023-07-24T08:36:17;26.41;53.86
47757;SHT35;22147;52.388;13.390;2023-07-24T08:38:47;26.82;53.35
47757;SHT35;22147;52.388;13.390;2023-07-24T08:41:21;26.87;52.08
47757;SHT35;22147;52.388;13.390;2023-07-24T08:43:51;26.39;53.40
47757;SHT35;22147;52.388;13.390;2023-07-24T08:46:21;26.48;54.04
47757;SHT35;22147;52.388;13.390;2023-07-24T08:48:53;26.63;53.21
47757;SHT35;22147;52.388;13.390;2023-07-24T08:51:24;26.84;52.95
47757;SHT35;22147;52.388;13.390;2023-07-24T08:53:54;27.04;52.33
47757;SHT35;22147;52.388;13.390;2023-07-24T08:56:25;27.37;51.85
47757;SHT35;22147;52.388;13.390;2023-07-24T08:58:53;27.57;51.01
47757;SHT35;22147;52.388;13.390;2023-07-24T09:01:22;27.82;49.92
47757;SHT35;22147;52.388;13.390;2023-07-24T09:03:52;27.93;49.94
47757;SHT35;22147;52.388;13.390;2023-07-24T09:06:22;28.16;49.18
47757;SHT35;22147;52.388;13.390;2023-07-24T09:08:54;28.03;49.06
47757;SHT35;22147;52.388;13.390;2023-07-24T09:11:25;27.69;49.86
47757;SHT35;22147;52.388;13.390;2023-07-24T09:13:54;27.38;50.05
47757;SHT35;22147;52.388;13.390;2023-07-24T09:16:26;27.31;50.72
47757;SHT35;22147;52.388;13.390;2023-07-24T09:18:54;27.58;50.75
47757;SHT35;22147;52.388;13.390;2023-07-24T09:21:32;27.75;51.32
47757;SHT35;22147;52.388;13.390;2023-07-24T09:24:15;27.86;49.37
47757;SHT35;22147;52.388;13.390;2023-07-24T09:26:52;27.99;49.22
47757;SHT35;22147;52.388;13.390;2023-07-24T09:29:33;27.99;48.95
47757;SHT35;22147;52.388;13.390;2023-07-24T09:32:03;27.71;48.48
47757;SHT35;22147;52.388;13.390;2023-07-24T09:34:33;27.49;49.48
47757;SHT35;22147;52.388;13.390;2023-07-24T09:37:01;27.33;50.13
47757;SHT35;22147;52.388;13.390;2023-07-24T09:39:31;27.54;51.62
47757;SHT35;22147;52.388;13.390;2023-07-24T09:42:05;27.88;49.92
47757;SHT35;22147;52.388;13.390;2023-07-24T09:44:35;28.17;51.39
47757;SHT35;22147;52.388;13.390;2023-07-24T09:47:04;27.84;49.31
47757;SHT35;22147;52.388;13.390;2023-07-24T09:49:55;28.15;48.39
47757;SHT35;22147;52.388;13.390;2023-07-24T09:52:30;28.26;48.94
47757;SHT35;22147;52.388;13.390;2023-07-24T09:55:26;28.65;46.80
47757;SHT35;22147;52.388;13.390;2023-07-24T09:58:01;28.41;46.41
47757;SHT35;22147;52.388;13.390;2023-07-24T10:00:33;28.51;46.17
47757;SHT35;22147;52.388;13.390;2023-07-24T10:03:02;28.45;46.45
47757;SHT35;22147;52.388;13.390;2023-07-24T10:05:32;28.59;46.70
47757;SHT35;22147;52.388;13.390;2023-07-24T10:08:00;28.56;47.41
47757;SHT35;22147;52.388;13.390;2023-07-24T10:10:30;28.78;45.68
47757;SHT35;22147;52.388;13.390;2023-07-24T10:13:04;28.99;46.16
47757;SHT35;22147;52.388;13.390;2023-07-24T10:15:36;28.84;45.33
47757;SHT35;22147;52.388;13.390;2023-07-24T10:18:09;28.27;46.50
47757;SHT35;22147;52.388;13.390;2023-07-24T10:20:40;28.26;47.70
47757;SHT35;22147;52.388;13.390;2023-07-24T10:23:17;28.44;47.76
47757;SHT35;22147;52.388;13.390;2023-07-24T10:25:50;28.95;45.59
47757;SHT35;22147;52.388;13.390;2023-07-24T10:28:37;29.12;45.55
47757;SHT35;22147;52.388;13.390;2023-07-24T10:31:25;29.09;43.89
47757;SHT35;22147;52.388;13.390;2023-07-24T10:34:07;28.98;45.13
47757;SHT35;22147;52.388;13.390;2023-07-24T10:36:37;29.16;45.07
47757;SHT35;22147;52.388;13.390;2023-07-24T10:39:17;29.60;42.49
47757;SHT35;22147;52.388;13.390;2023-07-24T10:41:51;29.45;44.09
47757;SHT35;22147;52.388;13.390;2023-07-24T10:44:32;29.45;43.06
47757;SHT35;22147;52.388;13.390;2023-07-24T10:47:03;29.46;43.33
47757;SHT35;22147;52.388;13.390;2023-07-24T10:49:34;29.38;43.74
47757;SHT35;22147;52.388;13.390;2023-07-24T10:52:05;29.15;43.06
47757;SHT35;22147;52.388;13.390;2023-07-24T10:54:35;28.67;43.65
47757;SHT35;22147;52.388;13.390;2023-07-24T10:57:06;29.11;44.06
47757;SHT35;22147;52.388;13.390;2023-07-24T10:59:40;29.02;42.84
47757;SHT35;22147;52.388;13.390;2023-07-24T11:02:10;28.74;44.13
47757;SHT35;22147;52.388;13.390;2023-07-24T11:04:40;28.60;44.23
47757;SHT35;22147;52.388;13.390;2023-07-24T11:07:11;28.84;43.17
47757;SHT35;22147;52.388;13.390;2023-07-24T11:09:41;29.16;42.67
47757;SHT35;22147;52.388;13.390;2023-07-24T11:12:16;29.16;42.69
47757;SHT35;22147;52.388;13.390;2023-07-24T11:14:52;29.09;43.59
47757;SHT35;22147;52.388;13.390;2023-07-24T11:17:38;29.49;42.10
47757;SHT35;22147;52.388;13.390;2023-07-24T11:20:16;29.72;42.40
47757;SHT35;22147;52.388;13.390;2023-07-24T11:22:46;29.94;41.41
47757;SHT35;22147;52.388;13.390;2023-07-24T11:25:17;29.77;41.07
47757;SHT35;22147;52.388;13.390;2023-07-24T11:27:47;29.70;41.84
47757;SHT35;22147;52.388;13.390;2023-07-24T11:30:22;29.63;41.86
47757;SHT35;22147;52.388;13.390;2023-07-24T11:32:53;29.56;41.48
47757;SHT35;22147;52.388;13.390;2023-07-24T11:35:25;29.47;42.68
47757;SHT35;22147;52.388;13.390;2023-07-24T11:37:56;29.32;41.13
47757;SHT35;22147;52.388;13.390;2023-07-24T11:40:43;29.43;42.19
47757;SHT35;22147;52.388;13.390;2023-07-24T11:43:21;29.46;41.22
47757;SHT35;22147;52.388;13.390;2023-07-24T11:45:53;29.63;41.08
47757;SHT35;22147;52.388;13.390;2023-07-24T11:48:25;29.54;42.39
47757;SHT35;22147;52.388;13.390;2023-07-24T11:50:56;29.66;41.07
47757;SHT35;22147;52.388;13.390;2023-07-24T11:53:27;29.73;40.78
47757;SHT35;22147;52.388;13.390;2023-07-24T11:56:00;29.66;41.10
47757;SHT35;22147;52.388;13.390;2023-07-24T11:58:31;29.87;40.56
47757;SHT35;22147;52.388;13.390;2023-07-24T12:00:59;29.77;40.32
47757;SHT35;22147;52.388;13.390;2023-07-24T12:03:29;29.88;40.39
47757;SHT35;22147;52.388;13.390;2023-07-24T12:05:59;29.88;40.88
47757;SHT35;22147;52.388;13.390;2023-07-24T12:08:35;30.02;39.03
47757;SHT35;22147;52.388;13.390;2023-07-24T12:11:17;29.96;40.32
47757;SHT35;22147;52.388;13.390;2023-07-24T12:13:50;29.80;40.46
47757;SHT35;22147;52.388;13.390;2023-07-24T12:16:21;29.58;40.80
47757;SHT35;22147;52.388;13.390;2023-07-24T12:18:51;29.23;41.58
47757;SHT35;22147;52.388;13.390;2023-07-24T12:21:21;29.08;41.36
47757;SHT35;22147;52.388;13.390;2023-07-24T12:23:51;28.74;41.62
47757;SHT35;22147;52.388;13.390;2023-07-24T12:26:21;28.47;42.61
47757;SHT35;22147;52.388;13.390;2023-07-24T12:28:53;28.10;43.22
47757;SHT35;22147;52.388;13.390;2023-07-24T12:31:21;27.90;43.69
47757;SHT35;22147;52.388;13.390;2023-07-24T12:33:50;27.40;45.14
47757;SHT35;22147;52.388;13.390;2023-07-24T12:36:18;27.21;45.74
47757;SHT35;22147;52.388;13.390;2023-07-24T12:38:47;27.44;46.47
47757;SHT35;22147;52.388;13.390;2023-07-24T12:41:18;27.82;45.14
47757;SHT35;22147;52.388;13.390;2023-07-24T12:43:48;28.36;44.31
47757;SHT35;22147;52.388;13.390;2023-07-24T12:46:18;28.94;43.68
47757;SHT35;22147;52.388;13.390;2023-07-24T12:48:49;29.26;42.71
47757;SHT35;22147;52.388;13.390;2023-07-24T12:51:19;29.49;41.18
47757;SHT35;22147;52.388;13.390;2023-07-24T12:53:49;29.32;42.54
47757;SHT35;22147;52.388;13.390;2023-07-24T12:56:37;29.09;42.80
47757;SHT35;22147;52.388;13.390;2023-07-24T12:59:07;28.67;45.50
47757;SHT35;22147;52.388;13.390;2023-07-24T13:01:37;27.72;48.51
47757;SHT35;22147;52.388;13.390;2023-07-24T13:04:08;26.94;50.54
47757;SHT35;22147;52.388;13.390;2023-07-24T13:06:39;26.35;52.56
47757;SHT35;22147;52.388;13.390;2023-07-24T13:09:09;26.15;53.52
47757;SHT35;22147;52.388;13.390;2023-07-24T13:11:39;26.38;53.76
47757;SHT35;22147;52.388;13.390;2023-07-24T13:14:09;26.51;53.55
47757;SHT35;22147;52.388;13.390;2023-07-24T13:16:40;26.79;54.76
47757;SHT35;22147;52.388;13.390;2023-07-24T13:19:10;26.75;53.75
47757;SHT35;22147;52.388;13.390;2023-07-24T13:21:40;26.78;53.84
47757;SHT35;22147;52.388;13.390;2023-07-24T13:24:13;26.84;54.07
47757;SHT35;22147;52.388;13.390;2023-07-24T13:26:43;27.10;53.42
47757;SHT35;22147;52.388;13.390;2023-07-24T13:29:13;27.34;52.82
47757;SHT35;22147;52.388;13.390;2023-07-24T13:31:44;27.24;52.82
47757;SHT35;22147;52.388;13.390;2023-07-24T13:34:15;27.11;53.23
47757;SHT35;22147;52.388;13.390;2023-07-24T13:36:47;27.10;52.66
47757;SHT35;22147;52.388;13.390;2023-07-24T13:39:18;27.04;52.79
47757;SHT35;22147;52.388;13.390;2023-07-24T13:41:46;26.82;53.84
47757;SHT35;22147;52.388;13.390;2023-07-24T13:44:15;26.72;54.66
47757;SHT35;22147;52.388;13.390;2023-07-24T13:46:43;26.69;54.60
47757;SHT35;22147;52.388;13.390;2023-07-24T13:49:11;26.56;54.22
47757;SHT35;22147;52.388;13.390;2023-07-24T13:51:40;26.38;54.98
47757;SHT35;22147;52.388;13.390;2023-07-24T13:54:08;26.29;55.45
47757;SHT35;22147;52.388;13.390;2023-07-24T13:56:37;26.13;56.26
47757;SHT35;22147;52.388;13.390;2023-07-24T13:59:05;25.95;56.48
47757;SHT35;22147;52.388;13.390;2023-07-24T14:01:33;25.86;56.55
47757;SHT35;22147;52.388;13.390;2023-07-24T14:04:02;25.73;57.15
47757;SHT35;22147;52.388;13.390;2023-07-24T14:06:30;25.59;57.52
47757;SHT35;22147;52.388;13.390;2023-07-24T14:08:59;25.60;57.30
47757;SHT35;22147;52.388;13.390;2023-07-24T14:11:27;25.49;57.72
47757;SHT35;22147;52.388;13.390;2023-07-24T14:13:59;25.43;57.96
47757;SHT35;22147;52.388;13.390;2023-07-24T14:16:27;25.46;58.92
47757;SHT35;22147;52.388;13.390;2023-07-24T14:18:55;25.51;58.89
47757;SHT35;22147;52.388;13.390;2023-07-24T14:21:24;25.65;58.68
47757;SHT35;22147;52.388;13.390;2023-07-24T14:23:52;25.87;57.67
47757;SHT35;22147;52.388;13.390;2023-07-24T14:26:21;25.95;58.27
47757;SHT35;22147;52.388;13.390;2023-07-24T14:28:49;26.04;57.60
47757;SHT35;22147;52.388;13.390;2023-07-24T14:31:17;26.02;58.17
47757;SHT35;22147;52.388;13.390;2023-07-24T14:33:46;26.00;58.75
47757;SHT35;22147;52.388;13.390;2023-07-24T14:36:14;25.91;58.31
47757;SHT35;22147;52.388;13.390;2023-07-24T14:38:43;25.81;59.32
47757;SHT35;22147;52.388;13.390;2023-07-24T14:41:11;25.76;57.54
47757;SHT35;22147;52.388;13.390;2023-07-24T14:43:40;25.67;56.59
47757;SHT35;22147;52.388;13.390;2023-07-24T14:46:08;25.66;56.01
47757;SHT35;22147;52.388;13.390;2023-07-24T14:48:36;25.73;55.78
47757;SHT35;22147;52.388;13.390;2023-07-24T14:51:05;25.80;56.18
47757;SHT35;22147;52.388;13.390;2023-07-24T14:53:33;26.00;54.77
47757;SHT35;22147;52.388;13.390;2023-07-24T14:56:02;26.05;54.43
47757;SHT35;22147;52.388;13.390;2023-07-24T14:58:30;26.05;54.74
47757;SHT35;22147;52.388;13.390;2023-07-24T15:00:59;26.02;54.95
47757;SHT35;22147;52.388;13.390;2023-07-24T15:03:27;25.87;55.25
47757;SHT35;22147;52.388;13.390;2023-07-24T15:05:55;25.87;55.35
47757;SHT35;22147;52.388;13.390;2023-07-24T15:08:24;25.86;55.44
47757;SHT35;22147;52.388;13.390;2023-07-24T15:10:52;25.80;55.39
47757;SHT35;22147;52.388;13.390;2023-07-24T15:13:21;25.70;55.97
47757;SHT35;22147;52.388;13.390;2023-07-24T15:15:49;25.67;55.81
47757;SHT35;22147;52.388;13.390;2023-07-24T15:18:17;25.70;55.47
47757;SHT35;22147;52.388;13.390;2023-07-24T15:20:46;25.77;55.05
47757;SHT35;22147;52.388;13.390;2023-07-24T15:23:14;25.73;55.61
47757;SHT35;22147;52.388;13.390;2023-07-24T15:25:44;25.67;55.61
47757;SHT35;22147;52.388;13.390;2023-07-24T15:28:15;25.83;54.82
47757;SHT35;22147;52.388;13.390;2023-07-24T15:30:45;26.14;54.56
47757;SHT35;22147;52.388;13.390;2023-07-24T15:33:15;26.59;53.77
47757;SHT35;22147;52.388;13.390;2023-07-24T15:35:45;27.42;52.64
47757;SHT35;22147;52.388;13.390;2023-07-24T15:38:16;28.36;48.70
47757;SHT35;22147;52.388;13.390;2023-07-24T15:40:46;28.74;48.02
47757;SHT35;22147;52.388;13.390;2023-07-24T15:43:16;29.08;46.38